King George, Virginia
Current Conditions -  °F | °C
As of 5:55 PM on Tuesday 27 Jan 2015 (Local Time) from KEZF Reporting Station
Overcast Overcast  
Wind Chill: -2°   Ceiling: 11000
Heat Index:   Visibility: 10mi
Dew Point: -5°   Wind: 8mph
Humidity: 66%   Direction: 340°NNW
Pressure: 29.87"   Gusts: NA
Location:  38.27°N, 77.18°W
Report Text: KEZF 272255Z AUTO 34007KT 10SM OVC110 01/M04 A2987 RMK AO2 T00131045
Loading
Personal Weather Stations






























Interactive Weather Map New forecast layout! Learn more

10-Day Weather Forecast

Advertisements
Track Severe Weather on mobile